createdAt,value
2023-06-15T00:02:31.809Z,11.58
2023-06-15T00:05:34.430Z,11.73
2023-06-15T00:08:36.937Z,11.54
2023-06-15T00:11:39.724Z,11.35
2023-06-15T00:14:42.285Z,11.54
2023-06-15T00:17:45.243Z,11.52
2023-06-15T00:20:49.143Z,11.41
2023-06-15T00:23:51.613Z,11.31
2023-06-15T00:26:54.062Z,11.41
2023-06-15T00:29:56.538Z,11.42
2023-06-15T00:32:59.026Z,11.33
2023-06-15T00:36:01.650Z,11.18
2023-06-15T00:39:04.839Z,11.12
2023-06-15T00:42:08.045Z,11.00
2023-06-15T00:45:10.984Z,11.17
2023-06-15T00:48:14.778Z,10.92
2023-06-15T00:51:17.292Z,10.90
2023-06-15T00:54:24.514Z,10.91
2023-06-15T00:57:26.987Z,10.90
2023-06-15T01:00:38.515Z,10.87
2023-06-15T01:03:41.868Z,10.91
2023-06-15T01:06:52.779Z,10.97
2023-06-15T01:09:57.152Z,10.86
2023-06-15T01:13:01.907Z,10.83
2023-06-15T01:16:14.825Z,10.71
2023-06-15T01:19:33.001Z,10.64
2023-06-15T01:22:58.876Z,10.88
2023-06-15T01:26:06.665Z,10.67
2023-06-15T01:29:11.710Z,10.57
2023-06-15T01:32:14.329Z,10.51
2023-06-15T01:35:17.059Z,10.46
2023-06-15T01:38:24.337Z,10.58
2023-06-15T01:41:27.904Z,10.33
2023-06-15T01:44:31.418Z,10.34
2023-06-15T01:47:33.913Z,10.14
2023-06-15T01:50:38.251Z,10.22
2023-06-15T01:53:40.753Z,10.14
2023-06-15T01:56:43.465Z,10.19
2023-06-15T01:59:45.890Z,10.06
2023-06-15T02:02:48.452Z,10.22
2023-06-15T02:05:50.982Z,9.92
2023-06-15T02:08:53.462Z,9.94
2023-06-15T02:11:55.939Z,9.95
2023-06-15T02:14:59.140Z,10.07
2023-06-15T02:18:06.123Z,10.13
2023-06-15T02:21:08.587Z,10.12
2023-06-15T02:24:11.271Z,10.03
2023-06-15T02:27:13.999Z,9.99
2023-06-15T02:30:16.993Z,9.90
2023-06-15T02:33:20.617Z,9.91
2023-06-15T02:36:24.034Z,9.98
2023-06-15T02:39:26.593Z,10.28
2023-06-15T02:42:29.028Z,10.18
2023-06-15T02:45:31.518Z,10.14
2023-06-15T02:48:34.271Z,10.15
2023-06-15T02:51:38.530Z,10.10
2023-06-15T02:54:41.296Z,10.15
2023-06-15T02:57:44.029Z,10.23
2023-06-15T03:00:54.982Z,10.27
2023-06-15T03:04:23.028Z,10.23
2023-06-15T03:07:26.549Z,10.23
2023-06-15T03:11:07.626Z,10.33
2023-06-15T03:14:11.767Z,10.47
2023-06-15T03:17:19.130Z,10.68
2023-06-15T03:20:22.849Z,10.99
2023-06-15T03:23:27.185Z,11.40
2023-06-15T03:26:30.066Z,12.97
2023-06-15T03:29:38.390Z,14.87
2023-06-15T03:32:42.960Z,15.88
2023-06-15T03:35:46.551Z,17.72
2023-06-15T03:38:49.116Z,18.68
2023-06-15T03:41:52.313Z,19.21
2023-06-15T03:44:55.199Z,19.54
2023-06-15T03:47:57.722Z,20.21
2023-06-15T03:51:00.942Z,20.83
2023-06-15T03:54:05.883Z,22.38
2023-06-15T03:57:08.326Z,22.35
2023-06-15T04:00:11.975Z,22.60
2023-06-15T04:03:21.958Z,23.06
2023-06-15T04:06:24.590Z,23.88
2023-06-15T04:09:28.310Z,21.91
2023-06-15T04:12:30.902Z,23.22
2023-06-15T04:15:33.713Z,23.90
2023-06-15T04:18:37.268Z,24.23
2023-06-15T04:21:39.795Z,23.81
2023-06-15T04:24:42.304Z,24.89
2023-06-15T04:27:46.013Z,24.48
2023-06-15T04:30:56.161Z,24.55
2023-06-15T04:34:00.579Z,25.24
2023-06-15T04:37:07.818Z,26.41
2023-06-15T04:40:13.293Z,26.89
2023-06-15T04:43:15.982Z,27.48
2023-06-15T04:46:18.773Z,26.17
2023-06-15T04:49:21.257Z,25.38
2023-06-15T04:52:23.971Z,25.37
2023-06-15T04:55:26.498Z,26.03
2023-06-15T04:58:29.123Z,28.49
2023-06-15T05:01:31.570Z,29.88
2023-06-15T05:04:35.750Z,29.48
2023-06-15T05:07:38.422Z,27.40
2023-06-15T05:10:46.196Z,29.56
2023-06-15T05:13:51.280Z,28.81
2023-06-15T05:16:55.108Z,29.73
2023-06-15T05:19:58.493Z,29.52
2023-06-15T05:23:01.682Z,30.62
2023-06-15T05:26:05.872Z,28.84
2023-06-15T05:29:11.969Z,29.58
2023-06-15T05:32:14.608Z,31.02
2023-06-15T05:35:18.440Z,31.83
2023-06-15T05:38:21.819Z,29.38
2023-06-15T05:41:24.406Z,31.55
2023-06-15T05:44:26.927Z,31.52
2023-06-15T05:47:32.573Z,27.42
2023-06-15T05:50:37.148Z,29.58
2023-06-15T05:53:39.775Z,29.40
2023-06-15T05:56:42.960Z,30.29
2023-06-15T05:59:49.090Z,31.89
2023-06-15T06:02:51.551Z,28.77
2023-06-15T06:06:03.805Z,32.09
2023-06-15T06:09:06.386Z,32.01
2023-06-15T06:12:09.627Z,33.35
2023-06-15T06:15:12.452Z,33.54
2023-06-15T06:18:14.957Z,32.49
2023-06-15T06:21:17.528Z,32.18
2023-06-15T06:24:23.488Z,31.88
2023-06-15T06:27:26.860Z,33.22
2023-06-15T06:30:29.631Z,32.13
2023-06-15T06:33:32.515Z,34.27
2023-06-15T06:36:34.973Z,34.90
2023-06-15T06:39:37.372Z,36.04
2023-06-15T06:42:39.757Z,35.18
2023-06-15T06:45:42.294Z,35.28
2023-06-15T06:48:44.694Z,34.92
2023-06-15T06:51:48.269Z,33.73
2023-06-15T06:54:50.730Z,32.89
2023-06-15T06:57:53.118Z,32.03
2023-06-15T07:00:55.545Z,32.53
2023-06-15T07:03:58.309Z,31.58
2023-06-15T07:07:01.247Z,32.72
2023-06-15T07:10:04.047Z,32.83
2023-06-15T07:13:06.549Z,35.01
2023-06-15T07:16:08.982Z,33.37
2023-06-15T07:19:11.626Z,32.91
2023-06-15T07:22:14.212Z,32.61
2023-06-15T07:25:17.109Z,33.94
2023-06-15T07:28:22.290Z,32.36
2023-06-15T07:31:24.786Z,32.82
2023-06-15T07:34:27.923Z,33.37
2023-06-15T07:37:30.465Z,34.29
2023-06-15T07:40:33.050Z,32.87
2023-06-15T07:43:36.485Z,32.43
2023-06-15T07:46:40.182Z,33.02
2023-06-15T07:49:46.070Z,32.24
2023-06-15T07:52:52.320Z,33.36
2023-06-15T07:55:55.106Z,34.75
2023-06-15T07:58:57.768Z,34.92
2023-06-15T08:02:03.939Z,35.64
2023-06-15T08:05:06.946Z,35.38
2023-06-15T08:08:09.366Z,32.37
2023-06-15T08:11:12.181Z,33.81
2023-06-15T08:14:14.590Z,34.15
2023-06-15T08:17:17.268Z,36.40
2023-06-15T08:20:20.741Z,36.22
2023-06-15T08:23:23.281Z,35.09
2023-06-15T08:26:25.814Z,35.50
2023-06-15T08:29:28.307Z,35.96
2023-06-15T08:32:32.107Z,33.72
2023-06-15T08:35:34.615Z,31.79
2023-06-15T08:38:37.016Z,33.89
2023-06-15T08:41:39.863Z,33.66
2023-06-15T08:44:43.616Z,33.69
2023-06-15T08:47:46.623Z,34.13
2023-06-15T08:50:52.484Z,35.11
2023-06-15T08:53:58.710Z,32.44
2023-06-15T08:57:01.926Z,29.85
2023-06-15T09:00:10.930Z,28.29
2023-06-15T09:03:15.323Z,28.28
2023-06-15T09:06:17.854Z,29.62
2023-06-15T09:09:20.300Z,30.21
2023-06-15T09:12:22.750Z,27.92
2023-06-15T09:15:28.194Z,28.34
2023-06-15T09:18:42.817Z,29.30
2023-06-15T09:21:52.815Z,30.09
2023-06-15T09:24:55.852Z,30.01
2023-06-15T09:28:00.743Z,30.33
2023-06-15T09:31:03.525Z,29.24
2023-06-15T09:34:07.199Z,28.80
2023-06-15T09:37:17.411Z,31.08
2023-06-15T09:40:20.115Z,31.87
2023-06-15T09:43:23.264Z,32.56
2023-06-15T09:46:29.219Z,31.39
2023-06-15T09:49:32.909Z,30.12
2023-06-15T09:52:41.978Z,29.27
2023-06-15T09:55:46.688Z,29.66
2023-06-15T09:58:49.724Z,29.89
2023-06-15T10:01:56.274Z,28.25
2023-06-15T10:04:59.147Z,28.83
2023-06-15T10:08:06.103Z,27.80
2023-06-15T10:11:10.850Z,27.90
2023-06-15T10:14:28.606Z,27.98
2023-06-15T10:17:34.794Z,28.33
2023-06-15T10:20:37.648Z,27.89
2023-06-15T10:23:42.901Z,27.45
2023-06-15T10:26:45.713Z,27.27
2023-06-15T10:30:08.933Z,26.83
2023-06-15T10:33:26.223Z,27.15
2023-06-15T10:36:31.285Z,27.35
2023-06-15T10:39:38.070Z,27.47
2023-06-15T10:42:49.356Z,27.27
2023-06-15T10:45:51.895Z,27.46
2023-06-15T10:48:55.180Z,28.13
2023-06-15T10:51:57.823Z,28.80
2023-06-15T10:55:00.425Z,27.93
2023-06-15T10:58:16.704Z,27.92
2023-06-15T11:04:32.795Z,27.30
2023-06-15T11:07:44.888Z,27.86
2023-06-15T11:10:47.944Z,27.31
2023-06-15T11:14:04.418Z,27.79
2023-06-15T11:17:07.274Z,27.21
2023-06-15T11:20:45.366Z,26.42
2023-06-15T11:23:50.707Z,27.20
2023-06-15T11:26:53.870Z,28.03
2023-06-15T11:29:56.993Z,27.44
2023-06-15T11:32:59.473Z,28.02
2023-06-15T11:36:07.219Z,27.86
2023-06-15T11:39:23.062Z,27.34
2023-06-15T11:42:25.647Z,27.06
2023-06-15T11:45:28.232Z,27.37
2023-06-15T11:48:31.270Z,27.03
2023-06-15T11:51:34.911Z,26.70
2023-06-15T11:54:51.840Z,27.37
2023-06-15T11:57:56.130Z,27.61
2023-06-15T12:00:59.160Z,27.92
2023-06-15T12:04:05.210Z,28.13
2023-06-15T12:07:08.908Z,27.32
2023-06-15T12:10:13.090Z,27.98
2023-06-15T12:13:16.609Z,27.42
2023-06-15T12:16:19.671Z,27.99
2023-06-15T12:19:22.285Z,28.33
2023-06-15T12:22:37.100Z,28.51
2023-06-15T12:25:47.758Z,27.66
2023-06-15T12:28:51.231Z,28.24
2023-06-15T12:31:54.958Z,27.83
2023-06-15T12:34:57.546Z,27.58
2023-06-15T12:38:00.261Z,27.34
2023-06-15T12:41:02.878Z,26.81
2023-06-15T12:44:06.834Z,27.22
2023-06-15T12:47:09.264Z,27.33
2023-06-15T12:50:11.635Z,26.94
2023-06-15T12:53:14.444Z,26.04
2023-06-15T12:56:17.268Z,26.60
2023-06-15T12:59:20.073Z,26.43
2023-06-15T13:02:22.562Z,26.40
2023-06-15T13:05:25.577Z,26.68
2023-06-15T13:08:28.875Z,26.21
2023-06-15T13:11:31.453Z,25.85
2023-06-15T13:14:34.207Z,26.31
2023-06-15T13:17:37.868Z,26.46
2023-06-15T13:20:40.853Z,26.73
2023-06-15T13:23:43.379Z,27.01
2023-06-15T13:26:46.705Z,26.55
2023-06-15T13:29:49.117Z,26.93
2023-06-15T13:32:51.570Z,26.73
2023-06-15T13:35:56.083Z,26.35
2023-06-15T13:38:58.762Z,26.90
2023-06-15T13:42:01.317Z,27.03
2023-06-15T13:45:08.266Z,27.08
2023-06-15T13:48:10.736Z,27.62
2023-06-15T13:51:13.239Z,27.01
2023-06-15T13:54:15.645Z,26.99
2023-06-15T13:57:18.078Z,27.14
2023-06-15T14:00:21.097Z,27.23
2023-06-15T14:03:24.351Z,26.30
2023-06-15T14:06:26.910Z,26.47
2023-06-15T14:09:29.508Z,26.32
2023-06-15T14:12:31.973Z,26.50
2023-06-15T14:15:34.568Z,26.66
2023-06-15T14:18:36.976Z,26.24
2023-06-15T14:21:39.372Z,26.38
2023-06-15T14:24:41.845Z,26.98
2023-06-15T14:27:48.818Z,26.66
2023-06-15T14:30:51.535Z,26.86
2023-06-15T14:33:54.061Z,26.27
2023-06-15T14:36:56.568Z,26.49
2023-06-15T14:39:59.543Z,26.18
2023-06-15T14:43:02.012Z,26.30
2023-06-15T14:46:04.613Z,25.67
2023-06-15T14:49:08.126Z,25.81
2023-06-15T14:52:11.018Z,25.87
2023-06-15T14:55:13.653Z,25.58
2023-06-15T14:58:16.074Z,25.70
2023-06-15T15:01:19.235Z,25.61
2023-06-15T15:04:21.824Z,25.61
2023-06-15T15:07:24.221Z,25.56
2023-06-15T15:10:28.916Z,25.39
2023-06-15T15:13:31.330Z,25.33
2023-06-15T15:16:33.820Z,25.33
2023-06-15T15:19:36.457Z,25.11
2023-06-15T15:22:40.632Z,25.38
2023-06-15T15:25:43.572Z,25.37
2023-06-15T15:28:46.334Z,25.22
2023-06-15T15:31:48.839Z,25.21
2023-06-15T15:34:51.738Z,25.06
2023-06-15T15:37:54.307Z,25.12
2023-06-15T15:40:56.866Z,24.77
2023-06-15T15:44:00.287Z,24.77
2023-06-15T15:47:03.538Z,24.85
2023-06-15T15:50:06.593Z,24.78
2023-06-15T15:53:09.072Z,24.91
2023-06-15T15:56:11.535Z,24.69
2023-06-15T15:59:13.988Z,24.61
2023-06-15T16:02:16.496Z,24.79
2023-06-15T16:05:18.999Z,24.62
2023-06-15T16:08:21.478Z,24.54
2023-06-15T16:11:23.928Z,24.46
2023-06-15T16:14:26.349Z,24.65
2023-06-15T16:17:28.875Z,24.58
2023-06-15T16:20:31.494Z,24.50
2023-06-15T16:23:33.921Z,24.36
2023-06-15T16:26:36.371Z,24.27
2023-06-15T16:29:38.817Z,24.24
2023-06-15T16:32:41.657Z,24.32
2023-06-15T16:35:44.108Z,24.43
2023-06-15T16:38:46.551Z,24.42
2023-06-15T16:41:48.923Z,24.17
2023-06-15T16:44:52.095Z,24.19
2023-06-15T16:47:55.297Z,23.99
2023-06-15T16:50:57.988Z,23.98
2023-06-15T16:54:00.486Z,23.81
2023-06-15T16:57:10.916Z,23.67
2023-06-15T17:00:13.958Z,23.63
2023-06-15T17:03:16.557Z,23.58
2023-06-15T17:06:19.081Z,23.45
2023-06-15T17:09:22.904Z,23.49
2023-06-15T17:12:25.283Z,23.44
2023-06-15T17:15:27.908Z,23.34
2023-06-15T17:18:30.346Z,23.24
2023-06-15T17:21:32.954Z,23.17
2023-06-15T17:24:35.469Z,23.14
2023-06-15T17:27:38.003Z,23.07
2023-06-15T17:30:41.884Z,22.89
2023-06-15T17:33:44.367Z,22.50
2023-06-15T17:36:46.884Z,22.37
2023-06-15T17:39:49.296Z,22.19
2023-06-15T17:42:52.355Z,22.05
2023-06-15T17:45:54.811Z,21.86
2023-06-15T17:48:57.302Z,21.65
2023-06-15T17:51:59.752Z,21.38
2023-06-15T17:55:02.261Z,21.13
2023-06-15T17:58:05.101Z,20.93
2023-06-15T18:01:12.092Z,20.73
2023-06-15T18:04:14.949Z,20.40
2023-06-15T18:07:17.634Z,20.25
2023-06-15T18:10:21.947Z,20.29
2023-06-15T18:13:24.452Z,20.00
2023-06-15T18:16:28.298Z,19.94
2023-06-15T18:19:30.770Z,19.95
2023-06-15T18:22:34.311Z,19.87
2023-06-15T18:25:37.244Z,19.76
2023-06-15T18:28:39.683Z,19.62
2023-06-15T18:31:42.504Z,19.32
2023-06-15T18:34:51.997Z,19.13
2023-06-15T18:37:54.989Z,19.18
2023-06-15T18:40:57.811Z,19.02
2023-06-15T18:44:00.491Z,18.87
2023-06-15T18:47:03.283Z,18.88
2023-06-15T18:50:07.512Z,18.65
2023-06-15T18:53:10.022Z,18.44
2023-06-15T18:56:12.409Z,18.39
2023-06-15T18:59:15.309Z,18.40
2023-06-15T19:02:19.830Z,18.35
2023-06-15T19:05:22.440Z,18.26
2023-06-15T19:08:24.975Z,18.22
2023-06-15T19:11:29.879Z,18.25
2023-06-15T19:14:38.414Z,18.28
2023-06-15T19:17:41.669Z,18.12
2023-06-15T19:20:44.949Z,18.11
2023-06-15T19:23:49.263Z,17.93
2023-06-15T19:26:54.181Z,17.76
2023-06-15T19:29:56.769Z,17.73
2023-06-15T19:32:59.375Z,17.62
2023-06-15T19:36:01.858Z,17.53
2023-06-15T19:39:04.707Z,17.54
2023-06-15T19:42:07.190Z,17.74
2023-06-15T19:45:10.444Z,17.85
2023-06-15T19:48:12.956Z,18.53
2023-06-15T19:51:15.459Z,19.38
2023-06-15T19:54:17.923Z,19.26
2023-06-15T19:57:20.726Z,19.47
2023-06-15T20:00:23.159Z,19.44
2023-06-15T20:03:31.210Z,19.68
2023-06-15T20:06:33.855Z,20.26
2023-06-15T20:09:36.262Z,20.23
2023-06-15T20:12:38.889Z,20.29
2023-06-15T20:15:41.327Z,20.59
2023-06-15T20:18:46.956Z,20.42
2023-06-15T20:21:49.584Z,20.40
2023-06-15T20:24:52.126Z,20.29
2023-06-15T20:27:54.642Z,20.26
2023-06-15T20:30:57.712Z,20.31
2023-06-15T20:34:00.166Z,20.20
2023-06-15T20:37:02.597Z,20.12
2023-06-15T20:40:06.014Z,19.99
2023-06-15T20:43:08.606Z,20.12
2023-06-15T20:46:12.072Z,20.08
2023-06-15T20:49:14.736Z,19.96
2023-06-15T20:52:17.230Z,19.90
2023-06-15T20:55:20.924Z,19.74
2023-06-15T20:58:23.408Z,19.58
2023-06-15T21:01:26.068Z,19.50
2023-06-15T21:04:28.715Z,19.39
2023-06-15T21:07:31.282Z,19.23
2023-06-15T21:10:33.975Z,19.24
2023-06-15T21:13:36.384Z,19.24
2023-06-15T21:16:38.841Z,19.08
2023-06-15T21:19:41.345Z,19.06
2023-06-15T21:22:43.766Z,19.07
2023-06-15T21:25:47.809Z,19.07
2023-06-15T21:28:50.303Z,18.96
2023-06-15T21:31:52.720Z,18.96
2023-06-15T21:34:55.431Z,18.85
2023-06-15T21:37:57.834Z,18.92
2023-06-15T21:41:00.291Z,18.91
2023-06-15T21:44:03.610Z,18.83
2023-06-15T21:47:06.918Z,18.86
2023-06-15T21:50:09.814Z,18.75
2023-06-15T21:53:12.213Z,18.75
2023-06-15T21:56:14.623Z,18.67
2023-06-15T21:59:17.067Z,18.58
2023-06-15T22:02:19.490Z,18.46
2023-06-15T22:05:22.014Z,18.52
2023-06-15T22:08:24.468Z,18.51
2023-06-15T22:11:26.922Z,18.44
2023-06-15T22:14:29.528Z,18.40
2023-06-15T22:17:32.069Z,18.43
2023-06-15T22:20:34.895Z,18.27
2023-06-15T22:23:37.389Z,18.37
2023-06-15T22:26:46.298Z,18.33
2023-06-15T22:29:52.467Z,18.45
2023-06-15T22:32:54.972Z,18.55
2023-06-15T22:35:57.417Z,18.42
2023-06-15T22:38:59.886Z,18.39
2023-06-15T22:42:02.346Z,18.34
2023-06-15T22:45:05.220Z,18.32
2023-06-15T22:48:07.820Z,18.36
2023-06-15T22:51:10.240Z,18.39
2023-06-15T22:54:13.080Z,18.36
2023-06-15T22:57:16.275Z,18.37
2023-06-15T23:00:19.257Z,18.34
2023-06-15T23:03:22.291Z,18.33
2023-06-15T23:06:25.456Z,18.34
2023-06-15T23:09:27.911Z,18.25
2023-06-15T23:12:31.685Z,18.27
2023-06-15T23:15:35.721Z,18.18
2023-06-15T23:18:38.815Z,17.99
2023-06-15T23:21:41.606Z,17.95
2023-06-15T23:24:43.988Z,17.96
2023-06-15T23:27:48.322Z,17.94
2023-06-15T23:30:51.407Z,17.94
2023-06-15T23:33:55.875Z,17.90
2023-06-15T23:36:58.292Z,17.90
2023-06-15T23:40:00.741Z,17.94
2023-06-15T23:43:03.942Z,17.86
2023-06-15T23:46:06.472Z,17.83
2023-06-15T23:49:09.102Z,17.85
2023-06-15T23:52:12.016Z,17.87
2023-06-15T23:55:14.433Z,17.90
2023-06-15T23:58:16.825Z,17.86
